EKSB

Sønderborg Airport

Airport
ICAO code
EKSB
IATA Code
SGD
Summary
ICAO Region
EUR
ICAO Territory
Location

Sønderborg, Sønderborg

Serving
Sønderborg
Elevation
24 ft
Coordinates
54° 57' 46" N , 9° 47' 11" E
KCC
Metar
Observation
EKSB 062150Z AUTO 19003KT 0450 R14/P1500U R32/1400U FG OVC002/// 01/00 Q1041
Station
Soenderborg Lufthavn
Date/Time
2023-02-06 22:50:00
Wind direction
190°
Wind speed
03 kts
Lowest cloud amount
overcast
Temperature
14°C
Dew point
0°C
Humidity
38%
QNH
1041 hPa
Weather condition
n/a

Sønderborg Airport is an airport located in Sønderborg, Denmark.

Climatology

Temperate Marine climate/Oceanic climate (Köppen climate classification Cfb).

Runways

Designator Length Width Surface Rops
14/32 1797 30 ASP Yes/Yes

Airport map

Aerial View

SKYbrary Partners:

Safety knowledge contributed by: